Time;durP1;ratioP1;P1;durP2;ratioP2;P2;SDS_P1;SDS_P2;PMS_P1;PMS_P2;Temp;Humidity;BMP_temperature;BMP_pressure;BME280_temperature;BME280_humidity;BME280_pressure;Samples;Min_cycle;Max_cycle;Signal;HPM_P1;HPM_P2
2022/01/02 00:01:01;;;;;;;;;12.67;11.33;;;;;21.59;56.01;101517.50;110794;1264;18268;-70
2022/01/02 00:03:28;;;;;;;;;11.00;10.00;;;;;21.59;55.98;101511.02;110924;1265;20560;-69
2022/01/02 00:05:55;;;;;;;;;11.67;11.00;;;;;21.59;55.88;101515.38;110877;1265;18764;-73
2022/01/02 00:08:23;;;;;;;;;10.00;10.00;;;;;21.59;55.84;101520.58;110904;1263;18959;-69
2022/01/02 00:10:51;;;;;;;;;13.67;12.33;;;;;21.59;55.69;101525.14;110945;1264;22067;-69
2022/01/02 00:13:18;;;;;;;;;11.00;10.00;;;;;21.59;55.69;101522.79;110987;1265;20675;-70
2022/01/02 00:15:45;;;;;;;;;11.00;11.00;;;;;21.57;55.63;101514.86;110996;1263;19249;-70
2022/01/02 00:18:13;;;;;;;;;13.00;11.00;;;;;21.60;55.67;101521.08;110881;1265;18712;-72
2022/01/02 00:20:47;;;;;;;;;10.67;10.67;;;;;21.59;55.81;101512.83;110941;1263;18772;-72
2022/01/02 00:23:21;;;;;;;;;13.33;10.00;;;;;21.58;55.53;101510.19;110883;1264;18350;-71
2022/01/02 00:25:48;;;;;;;;;14.00;11.00;;;;;21.58;55.64;101505.26;110882;1264;20485;-72
2022/01/02 00:28:16;;;;;;;;;12.50;11.00;;;;;21.58;55.58;101506.30;110895;1264;22122;-72
2022/01/02 00:30:43;;;;;;;;;11.00;9.33;;;;;21.57;55.44;101505.13;110809;1264;18399;-72
2022/01/02 00:33:10;;;;;;;;;9.50;9.00;;;;;21.56;55.42;101495.41;110872;1263;19041;-70
2022/01/02 00:35:38;;;;;;;;;9.00;9.00;;;;;21.57;55.57;101485.73;110907;1264;18864;-70
2022/01/02 00:38:05;;;;;;;;;13.00;12.33;;;;;21.56;55.44;101473.11;110882;1264;18018;-70
2022/01/02 00:40:33;;;;;;;;;11.67;9.00;;;;;21.56;55.35;101466.56;110891;1263;18758;-70
2022/01/02 00:43:00;;;;;;;;;10.33;10.00;;;;;21.55;55.29;101460.80;110920;1264;22068;-70
2022/01/02 00:45:28;;;;;;;;;15.00;10.33;;;;;21.55;55.31;101453.54;110887;1265;18613;-70
2022/01/02 00:47:55;;;;;;;;;9.00;9.00;;;;;21.56;55.17;101445.63;110869;1263;19420;-70
2022/01/02 00:50:22;;;;;;;;;11.33;10.33;;;;;21.54;55.31;101434.71;110899;1264;19412;-70
2022/01/02 00:52:50;;;;;;;;;11.00;10.00;;;;;21.54;55.20;101424.59;110938;1264;18570;-70
2022/01/02 00:55:17;;;;;;;;;10.00;9.67;;;;;21.54;55.10;101422.41;110980;1263;19762;-70
2022/01/02 00:57:44;;;;;;;;;14.33;11.00;;;;;21.54;54.97;101433.52;110917;1264;18762;-71
2022/01/02 01:00:12;;;;;;;;;9.00;9.00;;;;;21.52;55.00;101438.42;110837;1264;18760;-71
2022/01/02 01:02:39;;;;;;;;;11.00;10.00;;;;;21.51;55.19;101441.79;110822;1264;18856;-71
2022/01/02 01:05:06;;;;;;;;;10.67;10.00;;;;;21.51;55.10;101443.84;110909;1264;19211;-71
2022/01/02 01:07:34;;;;;;;;;10.67;9.33;;;;;21.50;55.00;101450.61;110944;1263;22078;-71
2022/01/02 01:10:03;;;;;;;;;10.50;9.00;;;;;21.50;55.03;101449.41;110933;1264;18787;-71
2022/01/02 01:12:31;;;;;;;;;9.00;9.00;;;;;21.49;55.05;101445.44;110955;1265;20291;-71
2022/01/02 01:15:00;;;;;;;;;10.00;9.33;;;;;21.50;54.90;101434.32;110926;1264;17864;-71
2022/01/02 01:17:27;;;;;;;;;10.00;9.00;;;;;21.50;55.02;101442.29;110927;1264;22888;-71
2022/01/02 01:19:54;;;;;;;;;10.00;9.00;;;;;21.49;54.64;101430.36;110918;1264;20608;-71
2022/01/02 01:22:22;;;;;;;;;10.00;10.00;;;;;21.49;54.83;101420.10;110844;1263;18717;-71
2022/01/02 01:24:49;;;;;;;;;10.00;9.33;;;;;21.49;54.69;101419.90;110943;1265;18880;-71
2022/01/02 01:27:17;;;;;;;;;9.33;9.00;;;;;21.48;54.63;101411.75;110873;1265;18713;-71
2022/01/02 01:29:44;;;;;;;;;14.00;10.00;;;;;21.47;54.77;101407.89;110917;1264;20680;-72
2022/01/02 01:32:11;;;;;;;;;10.00;8.00;;;;;21.47;54.77;101402.96;110839;1264;18955;-71
2022/01/02 01:34:39;;;;;;;;;10.00;10.00;;;;;21.48;54.62;101394.36;110892;1263;18749;-69
2022/01/02 01:37:06;;;;;;;;;11.00;10.00;;;;;21.47;54.55;101386.09;110970;1264;18800;-70
2022/01/02 01:39:33;;;;;;;;;9.67;6.67;;;;;21.48;54.49;101378.89;110890;1264;18753;-69
2022/01/02 01:42:07;;;;;;;;;9.00;7.00;;;;;21.48;54.48;101368.55;110873;1264;18662;-69
2022/01/02 01:45:03;;;;;;;;;11.33;10.00;;;;;21.47;54.50;101358.42;110924;1264;17993;-70
2022/01/02 01:47:30;;;;;;;;;10.00;10.00;;;;;21.48;54.39;101354.20;110896;1264;18805;-72
2022/01/02 01:49:57;;;;;;;;;9.00;8.67;;;;;21.47;54.40;101349.53;110924;1264;19049;-72
2022/01/02 01:52:24;;;;;;;;;9.00;9.00;;;;;21.47;54.40;101348.64;110918;1264;21628;-71
2022/01/02 01:54:52;;;;;;;;;9.67;8.00;;;;;21.47;54.36;101344.42;111018;1264;18855;-71
2022/01/02 01:57:19;;;;;;;;;10.00;9.00;;;;;21.47;54.37;101337.59;110951;1264;20305;-70
2022/01/02 01:59:46;;;;;;;;;9.00;7.33;;;;;21.44;54.25;101333.12;110961;1264;18806;-72
2022/01/02 02:02:14;;;;;;;;;10.33;9.00;;;;;21.46;54.31;101323.46;110926;1264;19369;-72
2022/01/02 02:04:41;;;;;;;;;9.33;8.00;;;;;21.47;54.25;101322.30;110905;1264;18397;-72
2022/01/02 02:07:08;;;;;;;;;9.67;8.67;;;;;21.46;54.28;101318.59;110957;1264;19184;-69
2022/01/02 02:09:49;;;;;;;;;10.00;7.00;;;;;21.46;54.15;101320.70;110938;1264;19295;-71
2022/01/02 02:12:17;;;;;;;;;13.00;10.00;;;;;21.45;54.31;101315.31;110857;1264;18292;-72
2022/01/02 02:14:44;;;;;;;;;7.00;7.00;;;;;21.45;54.17;101313.23;110835;1264;18171;-69
2022/01/02 02:17:11;;;;;;;;;6.33;6.33;;;;;21.45;54.23;101312.27;110865;1264;20162;-72
2022/01/02 02:19:39;;;;;;;;;9.00;8.33;;;;;21.45;54.16;101306.48;110893;1263;19551;-72
2022/01/02 02:22:07;;;;;;;;;10.00;9.33;;;;;21.44;54.12;101305.70;110918;1264;18323;-73
2022/01/02 02:24:35;;;;;;;;;9.33;8.67;;;;;21.44;54.19;101306.08;110860;1264;18725;-71
2022/01/02 02:27:03;;;;;;;;;7.00;7.00;;;;;21.44;53.99;101307.20;110837;1263;18766;-72
2022/01/02 02:29:30;;;;;;;;;7.00;7.00;;;;;21.44;53.91;101305.46;110891;1264;18442;-69
2022/01/02 02:31:57;;;;;;;;;9.00;8.00;;;;;21.44;54.08;101296.98;110838;1264;20064;-69
2022/01/02 02:34:25;;;;;;;;;9.67;9.00;;;;;21.43;54.06;101288.49;110937;1263;18250;-69
2022/01/02 02:36:52;;;;;;;;;9.00;7.33;;;;;21.44;54.01;101292.81;110961;1264;21564;-71
2022/01/02 02:39:19;;;;;;;;;9.00;9.00;;;;;21.43;54.08;101304.86;110946;1264;18829;-70
2022/01/02 02:41:47;;;;;;;;;11.00;9.00;;;;;21.44;54.03;101295.34;110870;1264;18713;-71
2022/01/02 02:44:28;;;;;;;;;9.00;9.00;;;;;21.43;53.89;101288.69;110932;1264;18538;-69
2022/01/02 02:49:40;;;;;;;;;9.67;9.00;;;;;21.43;53.96;101263.65;110871;1264;18631;-71
2022/01/02 02:52:15;;;;;;;;;6.67;6.67;;;;;21.42;53.89;101257.34;110974;1264;18420;-71
2022/01/02 02:54:43;;;;;;;;;8.67;7.33;;;;;21.42;53.77;101250.66;110885;1264;18688;-72
2022/01/02 02:57:13;;;;;;;;;10.00;9.00;;;;;21.43;53.81;101246.77;110895;1265;22801;-71
2022/01/02 02:59:41;;;;;;;;;12.67;9.67;;;;;21.42;53.75;101238.99;110913;1264;21539;-71
2022/01/02 03:02:08;;;;;;;;;9.00;8.33;;;;;21.42;53.89;101233.79;110761;1264;19284;-70
2022/01/02 03:04:36;;;;;;;;;9.50;8.50;;;;;21.38;53.80;101211.48;111458;1264;19408;-70
2022/01/02 03:07:03;;;;;;;;;10.00;9.33;;;;;21.41;53.76;101212.95;111068;1264;18386;-72
2022/01/02 03:09:39;;;;;;;;;10.33;9.00;;;;;21.41;53.65;101209.98;110894;1265;18772;-72
2022/01/02 03:12:06;;;;;;;;;9.00;9.00;;;;;21.42;53.78;101213.95;110900;1264;19567;-70
2022/01/02 03:14:33;;;;;;;;;10.50;9.00;;;;;21.43;53.58;101211.45;110904;1264;18002;-69
2022/01/02 03:17:02;;;;;;;;;10.00;8.00;;;;;21.42;53.65;101206.65;110912;1264;19260;-70
2022/01/02 03:19:29;;;;;;;;;10.33;10.33;;;;;21.41;53.46;101195.10;110858;1264;21586;-69
2022/01/02 03:21:57;;;;;;;;;9.50;8.00;;;;;21.41;53.60;101183.88;110972;1263;18866;-69
2022/01/02 03:24:24;;;;;;;;;10.00;9.33;;;;;21.41;53.57;101191.31;110886;1264;26910;-69
2022/01/02 03:26:51;;;;;;;;;9.00;8.00;;;;;21.41;53.68;101191.52;110936;1264;18271;-69
2022/01/02 03:29:19;;;;;;;;;6.00;6.00;;;;;21.42;53.69;101184.91;110957;1262;18039;-70
2022/01/02 03:31:46;;;;;;;;;9.00;9.00;;;;;21.40;53.68;101189.18;110954;1264;22070;-69
2022/01/02 03:34:13;;;;;;;;;9.67;9.33;;;;;21.39;53.68;101186.92;111423;1263;18331;-69
2022/01/02 03:36:40;;;;;;;;;10.00;9.00;;;;;21.39;53.66;101176.43;110887;1264;24104;-70
2022/01/02 03:39:08;;;;;;;;;9.67;9.00;;;;;21.40;53.49;101174.16;110893;1264;20907;-70
2022/01/02 03:41:35;;;;;;;;;9.00;9.00;;;;;21.40;53.57;101167.91;110882;1264;21997;-69
2022/01/02 03:44:03;;;;;;;;;9.00;7.67;;;;;21.40;53.52;101164.33;110957;1264;17893;-70
2022/01/02 03:46:30;;;;;;;;;8.67;8.67;;;;;21.40;53.44;101155.54;110914;1263;22026;-70
2022/01/02 03:48:57;;;;;;;;;12.00;10.00;;;;;21.41;53.55;101156.80;110925;1263;18443;-70
2022/01/02 03:51:25;;;;;;;;;9.00;9.00;;;;;21.40;53.51;101140.91;110899;1265;20232;-70
2022/01/02 03:53:52;;;;;;;;;10.00;10.00;;;;;21.40;53.35;101122.91;110844;1264;19926;-71
2022/01/02 03:56:19;;;;;;;;;7.00;7.00;;;;;21.39;53.72;101117.36;110928;1264;18702;-70
2022/01/02 03:58:47;;;;;;;;;12.00;9.50;;;;;21.39;53.51;101120.80;110897;1264;18708;-71
2022/01/02 04:01:14;;;;;;;;;10.00;9.67;;;;;21.37;53.61;101116.98;110945;1264;20155;-70
2022/01/02 04:03:41;;;;;;;;;9.00;9.00;;;;;21.38;53.48;101115.98;110893;1264;18790;-71
2022/01/02 04:06:09;;;;;;;;;9.00;8.67;;;;;21.38;53.55;101113.23;110887;1264;22054;-69
2022/01/02 04:08:36;;;;;;;;;9.00;9.00;;;;;21.38;53.37;101110.34;110941;1263;19331;-71
2022/01/02 04:11:03;;;;;;;;;9.00;9.00;;;;;21.39;53.30;101097.73;110864;1264;18706;-71
2022/01/02 04:13:31;;;;;;;;;7.33;7.33;;;;;21.38;53.52;101099.77;110905;1264;18268;-70
2022/01/02 04:15:58;;;;;;;;;9.33;9.33;;;;;21.36;53.31;101097.86;110956;1264;19803;-71
2022/01/02 04:18:25;;;;;;;;;9.00;8.33;;;;;21.38;53.32;101084.54;110916;1264;18942;-69
2022/01/02 04:20:52;;;;;;;;;9.00;9.00;;;;;21.38;53.45;101095.14;110856;1263;18051;-69
2022/01/02 04:23:20;;;;;;;;;11.33;9.00;;;;;21.38;53.46;101089.45;110908;1264;20183;-69
2022/01/02 04:25:47;;;;;;;;;8.67;8.67;;;;;21.37;53.33;101086.29;110901;1265;20187;-70
2022/01/02 04:28:15;;;;;;;;;9.50;9.00;;;;;21.37;53.38;101083.60;110892;1264;20824;-70
2022/01/02 04:30:42;;;;;;;;;8.67;8.33;;;;;21.37;53.48;101077.43;110936;1264;21596;-70
2022/01/02 04:33:09;;;;;;;;;9.00;9.00;;;;;21.37;53.34;101081.27;110903;1264;18353;-70
2022/01/02 04:35:37;;;;;;;;;12.00;10.00;;;;;21.37;53.31;101088.13;110952;1264;21959;-69
2022/01/02 04:38:04;;;;;;;;;6.00;6.00;;;;;21.37;53.44;101090.11;110938;1264;19257;-69
2022/01/02 04:40:31;;;;;;;;;8.33;8.00;;;;;21.37;53.40;101080.33;111004;1263;22086;-69
2022/01/02 04:42:59;;;;;;;;;10.33;9.00;;;;;21.37;53.31;101069.42;110927;1264;18050;-69
2022/01/02 04:45:26;;;;;;;;;13.00;10.00;;;;;21.37;53.38;101047.65;110901;1264;18758;-71
2022/01/02 04:47:53;;;;;;;;;11.00;8.00;;;;;21.36;53.60;101036.02;110888;1264;21506;-72
2022/01/02 04:50:21;;;;;;;;;9.00;9.00;;;;;21.35;53.29;101039.98;110908;1265;18197;-69
2022/01/02 04:52:48;;;;;;;;;9.00;8.00;;;;;21.37;53.30;101039.93;110916;1264;18737;-70
2022/01/02 04:55:15;;;;;;;;;8.33;8.00;;;;;21.36;53.32;101035.55;110925;1263;18458;-71
2022/01/02 04:57:43;;;;;;;;;10.00;9.00;;;;;21.36;53.32;101026.30;110916;1264;17938;-71
2022/01/02 05:00:10;;;;;;;;;9.00;8.67;;;;;21.35;53.17;101025.11;110911;1264;21016;-71
2022/01/02 05:02:37;;;;;;;;;9.00;8.00;;;;;21.36;53.31;101015.66;110825;1264;22044;-70
2022/01/02 05:05:05;;;;;;;;;9.67;9.67;;;;;21.35;53.30;101007.70;110885;1264;19909;-71
2022/01/02 05:07:32;;;;;;;;;12.00;9.33;;;;;21.35;53.19;100994.52;110940;1264;20048;-72
2022/01/02 05:10:00;;;;;;;;;9.00;9.00;;;;;21.34;53.26;100986.42;110972;1263;18432;-71
2022/01/02 05:12:28;;;;;;;;;9.00;9.00;;;;;21.35;53.28;100978.96;110917;1264;18656;-69
2022/01/02 05:14:57;;;;;;;;;12.00;10.00;;;;;21.35;53.31;100966.92;110908;1264;20142;-69
2022/01/02 05:17:24;;;;;;;;;13.00;10.67;;;;;21.35;53.10;100964.17;110927;1264;28412;-69
2022/01/02 05:19:52;;;;;;;;;7.33;7.00;;;;;21.33;53.25;100958.33;110898;1264;18752;-69
2022/01/02 05:22:19;;;;;;;;;8.33;8.00;;;;;21.34;53.13;100961.34;110954;1264;18756;-69
2022/01/02 05:24:46;;;;;;;;;9.00;9.00;;;;;21.34;53.16;100958.99;110943;1265;18355;-69
2022/01/02 05:27:14;;;;;;;;;10.00;9.50;;;;;21.33;53.36;100946.54;110892;1263;18649;-69
2022/01/02 05:29:41;;;;;;;;;10.00;9.00;;;;;21.34;53.17;100935.23;110853;1263;19233;-69
2022/01/02 05:32:08;;;;;;;;;9.50;8.50;;;;;21.34;53.19;100927.05;110919;1265;18733;-69
2022/01/02 05:34:36;;;;;;;;;8.67;8.67;;;;;21.34;53.27;100930.15;110883;1264;19293;-69
2022/01/02 05:37:03;;;;;;;;;9.67;9.67;;;;;21.34;53.29;100930.81;110948;1264;18779;-69
2022/01/02 05:39:30;;;;;;;;;10.00;9.67;;;;;21.34;53.07;100931.52;110892;1264;22496;-69
2022/01/02 05:41:58;;;;;;;;;8.67;8.00;;;;;21.35;53.13;100942.59;110852;1264;18269;-70
2022/01/02 05:44:25;;;;;;;;;8.00;8.00;;;;;21.35;53.22;100941.84;110869;1264;19492;-69
2022/01/02 05:46:53;;;;;;;;;8.00;7.33;;;;;21.34;53.16;100942.80;110904;1264;21186;-69
2022/01/02 05:49:21;;;;;;;;;7.33;7.33;;;;;21.35;53.22;100950.73;110931;1264;21440;-71
2022/01/02 05:51:48;;;;;;;;;8.00;8.00;;;;;21.35;53.17;100949.67;110893;1265;18838;-71
2022/01/02 05:54:15;;;;;;;;;9.00;8.00;;;;;21.34;53.36;100948.48;110907;1264;21530;-70
2022/01/02 05:56:43;;;;;;;;;12.33;10.00;;;;;21.33;53.25;100945.15;110897;1264;18640;-70
2022/01/02 05:59:10;;;;;;;;;9.33;9.00;;;;;21.33;53.16;100940.65;110899;1264;20758;-70
2022/01/02 06:01:37;;;;;;;;;9.00;8.67;;;;;21.32;53.21;100938.67;110882;1264;18688;-69
2022/01/02 06:04:05;;;;;;;;;8.00;8.00;;;;;21.32;53.40;100929.04;110890;1264;17951;-71
2022/01/02 06:06:32;;;;;;;;;8.67;8.67;;;;;21.32;53.32;100922.91;110909;1264;20308;-71
2022/01/02 06:08:59;;;;;;;;;8.00;8.00;;;;;21.30;53.30;100915.16;110851;1264;19003;-69
2022/01/02 06:11:27;;;;;;;;;8.67;8.67;;;;;21.30;53.31;100913.63;110867;1264;29689;-70
2022/01/02 06:13:54;;;;;;;;;9.67;8.33;;;;;21.32;53.27;100922.91;110949;1264;18735;-70
2022/01/02 06:16:21;;;;;;;;;9.00;8.00;;;;;21.32;53.15;100918.03;110914;1264;18487;-70
2022/01/02 06:18:50;;;;;;;;;9.00;8.33;;;;;21.32;53.23;100916.90;110862;1264;18533;-70
2022/01/02 06:21:18;;;;;;;;;8.33;8.00;;;;;21.32;53.32;100919.38;110888;1264;20703;-71
2022/01/02 06:23:45;;;;;;;;;9.00;9.00;;;;;21.32;53.41;100904.36;110883;1263;18376;-70
2022/01/02 06:26:12;;;;;;;;;8.00;8.00;;;;;21.31;53.15;100895.03;110910;1263;19160;-70
2022/01/02 06:28:40;;;;;;;;;9.00;8.00;;;;;21.32;53.29;100884.40;110908;1263;18674;-70
2022/01/02 06:31:08;;;;;;;;;8.00;8.00;;;;;21.31;53.11;100879.77;110960;1264;18496;-70
2022/01/02 06:33:36;;;;;;;;;9.67;9.00;;;;;21.31;53.32;100871.38;110889;1264;18128;-69
2022/01/02 06:36:03;;;;;;;;;9.00;8.33;;;;;21.31;53.28;100870.25;110844;1264;18750;-70
2022/01/02 06:38:31;;;;;;;;;9.67;9.00;;;;;21.32;53.29;100868.75;110827;1265;21633;-70
2022/01/02 06:40:58;;;;;;;;;10.00;9.67;;;;;21.32;53.25;100865.52;110849;1264;18583;-69
2022/01/02 06:43:25;;;;;;;;;10.67;9.00;;;;;21.32;53.28;100861.11;110892;1263;18672;-70
2022/01/02 06:45:53;;;;;;;;;10.00;9.00;;;;;21.31;53.36;100860.64;110841;1265;22029;-69
2022/01/02 06:48:20;;;;;;;;;8.00;6.00;;;;;21.31;53.19;100861.81;110902;1264;18236;-70
2022/01/02 06:50:47;;;;;;;;;8.00;7.00;;;;;21.31;53.02;100857.74;110900;1264;19602;-70
2022/01/02 06:53:15;;;;;;;;;8.33;8.00;;;;;21.31;53.15;100854.10;110915;1263;18447;-69
2022/01/02 06:55:43;;;;;;;;;9.00;8.00;;;;;21.34;53.09;100863.76;110883;1264;21175;-69
2022/01/02 06:58:14;;;;;;;;;9.00;9.00;;;;;21.34;53.16;100864.89;110980;1262;18859;-71
2022/01/02 07:00:42;;;;;;;;;10.00;8.00;;;;;21.33;53.30;100865.30;110850;1263;19761;-67
2022/01/02 07:03:09;;;;;;;;;9.33;8.67;;;;;21.36;53.01;100869.77;110826;1263;18135;-71
2022/01/02 07:05:37;;;;;;;;;9.00;9.00;;;;;21.35;53.13;100858.92;110948;1264;22824;-71
2022/01/02 07:08:04;;;;;;;;;13.00;10.00;;;;;21.34;53.17;100852.18;110915;1264;18353;-72
2022/01/02 07:10:31;;;;;;;;;7.00;7.00;;;;;21.34;53.19;100846.84;110994;1262;18264;-71
2022/01/02 07:13:00;;;;;;;;;9.67;9.00;;;;;21.35;53.40;100840.79;110913;1263;19039;-71
2022/01/02 07:15:27;;;;;;;;;10.00;10.00;;;;;21.31;53.24;100833.02;110857;1263;20743;-70
2022/01/02 07:17:54;;;;;;;;;8.00;8.00;;;;;21.33;53.31;100837.48;110915;1265;18654;-69
2022/01/02 07:20:22;;;;;;;;;9.00;9.00;;;;;21.36;53.41;100841.71;110882;1263;19370;-69
2022/01/02 07:22:49;;;;;;;;;10.00;9.00;;;;;21.37;53.17;100837.44;110813;1264;18942;-71
2022/01/02 07:25:16;;;;;;;;;10.00;9.67;;;;;21.38;53.38;100841.36;110895;1264;18216;-70
2022/01/02 07:27:44;;;;;;;;;8.00;8.00;;;;;21.39;53.41;100834.02;110866;1264;22739;-70
2022/01/02 07:30:11;;;;;;;;;11.00;10.00;;;;;21.43;53.92;100823.54;110871;1264;18749;-70
2022/01/02 07:32:39;;;;;;;;;8.00;8.00;;;;;21.47;54.11;100825.90;110924;1263;18648;-68
2022/01/02 07:35:07;;;;;;;;;12.00;12.00;;;;;21.49;54.40;100821.16;110916;1264;19219;-70
2022/01/02 07:37:34;;;;;;;;;9.00;9.00;;;;;21.50;54.61;100816.23;110758;1265;20379;-71
2022/01/02 07:40:01;;;;;;;;;9.00;8.00;;;;;21.53;55.05;100808.68;110903;1263;18585;-70
2022/01/02 07:42:29;;;;;;;;;10.00;10.00;;;;;21.58;55.22;100808.10;110874;1264;18651;-71
2022/01/02 07:44:57;;;;;;;;;9.33;7.33;;;;;21.59;55.12;100798.89;110849;1264;18992;-70
2022/01/02 07:47:25;;;;;;;;;10.00;9.67;;;;;21.61;55.88;100797.01;110887;1264;18673;-71
2022/01/02 07:49:52;;;;;;;;;9.33;8.00;;;;;21.69;55.83;100799.11;110935;1264;19511;-73
2022/01/02 07:52:19;;;;;;;;;12.67;12.00;;;;;21.69;56.04;100788.59;110969;1265;22334;-70
2022/01/02 07:54:47;;;;;;;;;11.00;9.67;;;;;21.73;56.75;100788.12;110845;1264;18829;-70
2022/01/02 07:57:14;;;;;;;;;14.00;13.00;;;;;21.75;56.78;100785.84;110895;1264;21208;-72
2022/01/02 07:59:42;;;;;;;;;10.67;10.33;;;;;21.74;56.93;100776.30;110877;1264;20104;-73
2022/01/02 08:02:09;;;;;;;;;10.33;9.00;;;;;21.75;57.09;100765.31;110969;1262;18479;-73
2022/01/02 08:04:36;;;;;;;;;10.33;10.33;;;;;21.76;57.55;100750.41;110934;1261;23175;-72
2022/01/02 08:07:04;;;;;;;;;13.67;10.00;;;;;21.76;58.17;100740.14;111018;1261;18744;-73
2022/01/02 08:09:31;;;;;;;;;12.33;10.67;;;;;21.78;58.60;100735.54;110821;1264;19149;-70
2022/01/02 08:11:58;;;;;;;;;14.00;12.67;;;;;21.80;59.03;100726.49;110845;1264;20699;-72
2022/01/02 08:14:26;;;;;;;;;17.00;13.00;;;;;21.82;59.15;100728.15;110872;1264;18711;-72
2022/01/02 08:16:53;;;;;;;;;11.00;11.00;;;;;21.82;59.75;100726.82;110903;1264;19087;-72
2022/01/02 08:19:21;;;;;;;;;10.67;10.67;;;;;21.82;60.40;100720.23;110968;1264;19404;-72
2022/01/02 08:21:48;;;;;;;;;11.00;10.50;;;;;21.80;60.63;100707.27;110963;1264;18795;-72
2022/01/02 08:24:15;;;;;;;;;10.00;10.00;;;;;21.76;60.32;100691.14;110917;1264;22083;-73
2022/01/02 08:26:43;;;;;;;;;13.00;13.00;;;;;21.75;60.03;100677.00;110906;1265;18732;-72
2022/01/02 08:29:10;;;;;;;;;10.33;9.33;;;;;21.75;60.15;100676.17;110931;1264;18754;-71
2022/01/02 08:31:37;;;;;;;;;10.67;9.00;;;;;21.72;59.97;100674.71;110879;1264;19458;-71
2022/01/02 08:34:05;;;;;;;;;12.00;12.00;;;;;21.70;59.46;100688.61;110995;1262;19124;-72
2022/01/02 08:36:32;;;;;;;;;13.00;11.33;;;;;21.73;58.80;100700.31;110923;1264;18723;-73
2022/01/02 08:38:59;;;;;;;;;14.00;13.00;;;;;21.75;58.64;100697.54;110931;1264;21395;-73
2022/01/02 08:41:27;;;;;;;;;14.00;14.00;;;;;21.77;58.48;100680.84;110873;1264;18742;-72
2022/01/02 08:43:54;;;;;;;;;14.00;13.67;;;;;21.79;58.53;100666.30;110860;1262;18758;-72
2022/01/02 08:46:21;;;;;;;;;17.00;13.67;;;;;21.77;58.38;100668.12;110886;1263;18174;-71
2022/01/02 08:48:49;;;;;;;;;18.00;13.00;;;;;21.80;58.40;100676.36;110777;1262;18967;-73
2022/01/02 08:51:16;;;;;;;;;26.33;23.33;;;;;21.77;57.88;100667.36;110765;1264;21682;-73
2022/01/02 08:53:44;;;;;;;;;197.50;143.50;;;;;21.76;57.89;100666.63;110833;1264;18295;-74
2022/01/02 08:56:11;;;;;;;;;261.00;194.50;;;;;21.73;58.12;100657.05;110818;1264;18850;-73
2022/01/02 08:58:38;;;;;;;;;310.75;218.25;;;;;21.72;58.23;100645.36;110791;1264;146390;-70
2022/01/02 09:01:06;;;;;;;;;386.75;283.50;;;;;21.69;58.05;100640.73;110877;1263;19652;-73
2022/01/02 09:03:33;;;;;;;;;485.25;338.50;;;;;21.68;57.84;100630.73;110822;1264;22353;-72
2022/01/02 09:06:00;;;;;;;;;441.00;307.75;;;;;21.66;57.80;100627.23;110842;1263;19722;-72
2022/01/02 09:08:28;;;;;;;;;336.50;241.75;;;;;21.69;58.12;100629.15;110833;1264;22530;-73
2022/01/02 09:10:55;;;;;;;;;282.25;204.50;;;;;21.68;58.18;100631.23;110866;1264;18712;-71
2022/01/02 09:13:23;;;;;;;;;234.00;172.00;;;;;21.65;58.31;100631.74;110905;1265;19105;-72
2022/01/02 09:15:50;;;;;;;;;203.50;156.00;;;;;21.59;57.68;100626.61;110808;1262;18821;-72
2022/01/02 09:18:18;;;;;;;;;168.00;126.25;;;;;21.53;57.28;100627.56;110798;1265;19227;-71
2022/01/02 09:20:45;;;;;;;;;139.33;106.00;;;;;21.48;57.00;100624.13;110814;1264;19155;-70
2022/01/02 09:23:12;;;;;;;;;135.75;101.50;;;;;21.48;56.73;100612.35;110847;1264;18749;-72
2022/01/02 09:25:40;;;;;;;;;147.33;108.67;;;;;21.45;56.45;100599.32;110921;1264;18623;-75
2022/01/02 09:28:07;;;;;;;;;126.67;101.00;;;;;21.50;56.61;100598.62;110947;1264;19707;-73
2022/01/02 09:30:34;;;;;;;;;131.33;101.67;;;;;21.60;56.60;100596.34;110908;1264;20194;-71
2022/01/02 09:33:03;;;;;;;;;117.67;91.00;;;;;21.67;57.19;100583.21;110927;1264;18897;-73
2022/01/02 09:35:30;;;;;;;;;116.00;88.00;;;;;21.72;57.39;100573.98;110898;1265;22121;-72
2022/01/02 09:37:57;;;;;;;;;107.67;86.00;;;;;21.75;57.68;100568.73;110904;1264;21871;-72
2022/01/02 09:40:25;;;;;;;;;107.33;86.67;;;;;21.76;57.82;100571.68;110929;1264;18739;-73
2022/01/02 09:42:52;;;;;;;;;103.67;78.33;;;;;21.77;57.89;100564.32;110811;1264;19378;-72
2022/01/02 09:45:19;;;;;;;;;99.33;78.00;;;;;21.76;58.07;100567.65;111475;1264;19314;-73
2022/01/02 09:47:47;;;;;;;;;100.33;72.33;;;;;21.80;58.02;100561.73;110915;1264;21415;-73
2022/01/02 09:50:14;;;;;;;;;96.00;70.00;;;;;21.75;57.94;100552.67;110912;1264;19417;-73
2022/01/02 09:52:41;;;;;;;;;92.67;68.00;;;;;21.76;57.89;100553.30;110925;1264;18717;-73
2022/01/02 09:55:10;;;;;;;;;100.00;69.00;;;;;21.76;58.29;100549.83;111035;1261;21500;-73
2022/01/02 09:57:38;;;;;;;;;94.00;68.33;;;;;21.74;58.24;100549.20;110794;1264;21991;-73
2022/01/02 10:00:05;;;;;;;;;96.33;68.33;;;;;21.74;58.44;100544.08;110921;1264;18378;-73
2022/01/02 10:02:33;;;;;;;;;85.00;63.00;;;;;21.75;58.76;100543.30;110916;1262;18656;-74
2022/01/02 10:05:00;;;;;;;;;85.00;63.67;;;;;21.72;58.20;100545.14;110939;1262;21411;-72
2022/01/02 10:07:29;;;;;;;;;82.33;60.67;;;;;21.69;57.82;100527.23;110796;1264;18271;-72
2022/01/02 10:09:56;;;;;;;;;80.67;61.00;;;;;21.71;57.52;100523.44;110830;1261;20456;-74
2022/01/02 10:12:25;;;;;;;;;77.33;57.67;;;;;21.71;57.32;100523.02;110920;1264;18669;-73
2022/01/02 10:14:52;;;;;;;;;81.33;59.67;;;;;21.71;56.77;100512.66;110944;1262;21559;-73
2022/01/02 10:17:20;;;;;;;;;69.67;53.67;;;;;21.71;56.14;100516.89;110847;1263;19257;-74
2022/01/02 10:19:47;;;;;;;;;69.50;53.00;;;;;21.68;55.63;100509.20;110915;1262;21532;-73
2022/01/02 10:22:14;;;;;;;;;65.33;49.00;;;;;21.64;55.27;100497.02;110798;1264;21579;-73
2022/01/02 10:24:46;;;;;;;;;64.33;51.00;;;;;21.61;54.89;100498.11;110900;1264;18768;-73
2022/01/02 10:27:14;;;;;;;;;57.67;45.67;;;;;21.54;54.88;100500.54;110861;1263;22259;-73
2022/01/02 10:29:41;;;;;;;;;62.00;47.00;;;;;21.55;54.88;100499.46;110867;1262;21997;-71
2022/01/02 10:32:08;;;;;;;;;57.00;43.00;;;;;21.60;54.93;100493.15;110775;1264;21480;-73
2022/01/02 10:34:36;;;;;;;;;61.00;45.67;;;;;21.58;54.40;100484.94;110835;1264;20946;-71
2022/01/02 10:37:03;;;;;;;;;54.00;43.33;;;;;21.55;54.59;100476.26;110858;1264;18948;-72
2022/01/02 10:39:30;;;;;;;;;53.33;41.00;;;;;21.53;54.25;100463.23;111159;1264;18579;-77
2022/01/02 10:41:58;;;;;;;;;55.33;43.00;;;;;21.52;54.56;100452.98;111964;1263;19426;-75
2022/01/02 10:44:29;;;;;;;;;46.67;40.67;;;;;21.58;54.53;100465.28;111702;1263;18932;-71
2022/01/02 10:46:56;;;;;;;;;52.00;41.33;;;;;21.62;54.46;100456.26;110911;1264;20998;-74
2022/01/02 10:49:24;;;;;;;;;50.50;41.50;;;;;21.65;54.49;100445.80;110917;1264;18727;-75
2022/01/02 10:51:51;;;;;;;;;49.00;40.33;;;;;21.61;54.72;100435.73;110852;1265;18182;-73
2022/01/02 10:54:18;;;;;;;;;45.33;38.33;;;;;21.56;54.79;100422.23;110898;1264;24908;-74
2022/01/02 10:56:46;;;;;;;;;49.33;42.67;;;;;21.53;55.04;100415.79;110913;1264;18713;-75
2022/01/02 10:59:17;;;;;;;;;43.67;38.67;;;;;21.50;55.21;100403.57;110930;1264;18953;-75
2022/01/02 11:01:44;;;;;;;;;46.50;40.50;;;;;21.49;55.42;100390.27;110821;1263;27374;-75
2022/01/02 11:04:12;;;;;;;;;43.33;36.67;;;;;21.49;55.66;100384.88;110903;1265;22018;-75
2022/01/02 11:06:39;;;;;;;;;47.00;38.00;;;;;21.48;55.65;100382.58;110784;1264;18553;-74
2022/01/02 11:09:07;;;;;;;;;50.67;39.67;;;;;21.49;55.70;100386.69;110877;1263;19199;-74
2022/01/02 11:11:34;;;;;;;;;44.00;36.67;;;;;21.49;55.76;100381.08;110854;1264;22270;-74